sensor_id;sensor_type;location;lat;lon;timestamp;pressure;altitude;pressure_sealevel;temperature;humidity
72612;BME280;60655;52.182;4.474;2022-12-13T00:00:05;101382.75;;;0.75;83.54
72612;BME280;60655;52.182;4.474;2022-12-13T00:02:08;101389.47;;;0.87;83.75
72612;BME280;60655;52.182;4.474;2022-12-13T00:04:09;101385.78;;;0.80;83.28
72612;BME280;60655;52.182;4.474;2022-12-13T00:06:11;101384.25;;;0.87;83.98
72612;BME280;60655;52.182;4.474;2022-12-13T00:08:12;101376.56;;;0.86;83.71
72612;BME280;60655;52.182;4.474;2022-12-13T00:10:13;101378.09;;;0.79;83.24
72612;BME280;60655;52.182;4.474;2022-12-13T00:12:14;101379.59;;;0.81;82.53
72612;BME280;60655;52.182;4.474;2022-12-13T00:14:16;101388.69;;;0.77;82.94
72612;BME280;60655;52.182;4.474;2022-12-13T00:16:19;101381.94;;;0.65;83.27
72612;BME280;60655;52.182;4.474;2022-12-13T00:18:24;101385.78;;;0.80;83.55
72612;BME280;60655;52.182;4.474;2022-12-13T00:20:25;101383.44;;;0.77;83.29
72612;BME280;60655;52.182;4.474;2022-12-13T00:22:26;101383.03;;;0.72;83.13
72612;BME280;60655;52.182;4.474;2022-12-13T00:24:27;101378.91;;;0.70;84.06
72612;BME280;60655;52.182;4.474;2022-12-13T00:26:30;101376.84;;;0.63;83.42
72612;BME280;60655;52.182;4.474;2022-12-13T00:28:32;101376.28;;;0.70;83.27
72612;BME280;60655;52.182;4.474;2022-12-13T00:30:33;101375.31;;;0.71;83.79
72612;BME280;60655;52.182;4.474;2022-12-13T00:32:34;101381.25;;;0.63;82.98
72612;BME280;60655;52.182;4.474;2022-12-13T00:34:35;101382.75;;;0.65;83.78
72612;BME280;60655;52.182;4.474;2022-12-13T00:36:36;101380.72;;;0.50;82.83
72612;BME280;60655;52.182;4.474;2022-12-13T00:38:37;101382.75;;;0.46;82.25
72612;BME280;60655;52.182;4.474;2022-12-13T00:40:38;101380.00;;;0.48;83.35
72612;BME280;60655;52.182;4.474;2022-12-13T00:42:39;101376.84;;;0.44;83.10
72612;BME280;60655;52.182;4.474;2022-12-13T00:44:40;101366.94;;;0.38;83.80
72612;BME280;60655;52.182;4.474;2022-12-13T00:46:41;101364.19;;;0.40;83.88
72612;BME280;60655;52.182;4.474;2022-12-13T00:48:46;101371.63;;;0.44;84.09
72612;BME280;60655;52.182;4.474;2022-12-13T00:50:48;101354.44;;;0.42;83.37
72612;BME280;60655;52.182;4.474;2022-12-13T00:52:49;101364.06;;;0.51;83.85
72612;BME280;60655;52.182;4.474;2022-12-13T00:54:50;101362.41;;;0.50;83.48
72612;BME280;60655;52.182;4.474;2022-12-13T00:56:51;101365.69;;;0.42;83.26
72612;BME280;60655;52.182;4.474;2022-12-13T00:58:53;101351.38;;;0.37;83.95
72612;BME280;60655;52.182;4.474;2022-12-13T01:01:07;101355.25;;;0.42;83.56
72612;BME280;60655;52.182;4.474;2022-12-13T01:03:08;101359.91;;;0.39;83.35
72612;BME280;60655;52.182;4.474;2022-12-13T01:05:20;101356.47;;;0.38;82.99
72612;BME280;60655;52.182;4.474;2022-12-13T01:07:21;101351.53;;;0.35;83.59
72612;BME280;60655;52.182;4.474;2022-12-13T01:09:24;101347.13;;;0.36;83.89
72612;BME280;60655;52.182;4.474;2022-12-13T01:11:30;101353.88;;;0.38;83.24
72612;BME280;60655;52.182;4.474;2022-12-13T01:13:32;101352.91;;;0.39;84.19
72612;BME280;60655;52.182;4.474;2022-12-13T01:15:33;101358.41;;;0.36;83.40
72612;BME280;60655;52.182;4.474;2022-12-13T01:17:34;101357.72;;;0.34;83.64
72612;BME280;60655;52.182;4.474;2022-12-13T01:19:35;101361.72;;;0.28;84.22
72612;BME280;60655;52.182;4.474;2022-12-13T01:21:36;101360.06;;;0.37;84.43
72612;BME280;60655;52.182;4.474;2022-12-13T01:23:37;101356.06;;;0.33;83.49
72612;BME280;60655;52.182;4.474;2022-12-13T01:25:39;101351.78;;;0.32;84.40
72612;BME280;60655;52.182;4.474;2022-12-13T01:27:39;101348.09;;;0.34;84.20
72612;BME280;60655;52.182;4.474;2022-12-13T01:29:40;101360.06;;;0.27;82.64
72612;BME280;60655;52.182;4.474;2022-12-13T01:31:42;101345.50;;;0.25;83.93
72612;BME280;60655;52.182;4.474;2022-12-13T01:33:43;101349.06;;;0.24;83.99
72612;BME280;60655;52.182;4.474;2022-12-13T01:35:44;101342.59;;;0.18;84.10
72612;BME280;60655;52.182;4.474;2022-12-13T01:37:45;101347.69;;;0.20;84.38
72612;BME280;60655;52.182;4.474;2022-12-13T01:39:46;101347.41;;;0.13;84.29
72612;BME280;60655;52.182;4.474;2022-12-13T01:41:51;101352.59;;;0.04;83.50
72612;BME280;60655;52.182;4.474;2022-12-13T01:44:01;101349.97;;;-0.06;85.33
72612;BME280;60655;52.182;4.474;2022-12-13T01:46:03;101345.03;;;0.00;85.10
72612;BME280;60655;52.182;4.474;2022-12-13T01:48:18;101347.78;;;0.09;83.54
72612;BME280;60655;52.182;4.474;2022-12-13T01:50:41;101358.66;;;-0.06;84.93
72612;BME280;60655;52.182;4.474;2022-12-13T01:52:44;101353.16;;;-0.03;84.90
72612;BME280;60655;52.182;4.474;2022-12-13T01:54:47;101348.03;;;-0.14;84.89
72612;BME280;60655;52.182;4.474;2022-12-13T01:56:52;101355.22;;;-0.06;84.42
72612;BME280;60655;52.182;4.474;2022-12-13T01:58:55;101359.34;;;0.06;85.43
72612;BME280;60655;52.182;4.474;2022-12-13T02:00:57;101346.84;;;0.00;84.61
72612;BME280;60655;52.182;4.474;2022-12-13T02:03:00;101355.34;;;-0.08;84.86
72612;BME280;60655;52.182;4.474;2022-12-13T02:07:08;101355.47;;;-0.09;84.01
72612;BME280;60655;52.182;4.474;2022-12-13T02:09:10;101350.78;;;-0.15;85.11
72612;BME280;60655;52.182;4.474;2022-12-13T02:11:12;101354.59;;;-0.19;84.48
72612;BME280;60655;52.182;4.474;2022-12-13T02:13:13;101351.44;;;-0.23;85.13
72612;BME280;60655;52.182;4.474;2022-12-13T02:15:17;101350.91;;;-0.17;85.17
72612;BME280;60655;52.182;4.474;2022-12-13T02:30:50;101333.03;;;-0.31;84.96
72612;BME280;60655;52.182;4.474;2022-12-13T02:35:26;101340.03;;;-0.31;85.46
72612;BME280;60655;52.182;4.474;2022-12-13T02:37:45;101330.91;;;-0.47;84.21
72612;BME280;60655;52.182;4.474;2022-12-13T02:39:58;101336.88;;;-0.25;84.47
72612;BME280;60655;52.182;4.474;2022-12-13T02:42:24;101336.28;;;-0.39;84.91
72612;BME280;60655;52.182;4.474;2022-12-13T02:44:28;101338.34;;;-0.42;85.12
72612;BME280;60655;52.182;4.474;2022-12-13T02:46:35;101332.72;;;-0.38;85.07
72612;BME280;60655;52.182;4.474;2022-12-13T02:48:39;101330.50;;;-0.42;85.05
72612;BME280;60655;52.182;4.474;2022-12-13T02:50:43;101327.19;;;-0.44;84.46
72612;BME280;60655;52.182;4.474;2022-12-13T02:52:44;101330.56;;;-0.32;84.87
72612;BME280;60655;52.182;4.474;2022-12-13T02:54:47;101323.13;;;-0.27;84.78
72612;BME280;60655;52.182;4.474;2022-12-13T02:56:55;101326.28;;;-0.33;84.39
72612;BME280;60655;52.182;4.474;2022-12-13T02:58:57;101333.38;;;-0.45;85.01
72612;BME280;60655;52.182;4.474;2022-12-13T03:01:17;101328.44;;;-0.48;84.36
72612;BME280;60655;52.182;4.474;2022-12-13T03:08:36;101322.38;;;-0.49;84.74
72612;BME280;60655;52.182;4.474;2022-12-13T03:13:25;101327.97;;;-0.63;85.54
72612;BME280;60655;52.182;4.474;2022-12-13T03:15:46;101330.19;;;-0.58;84.05
72612;BME280;60655;52.182;4.474;2022-12-13T03:17:55;101316.72;;;-0.54;84.45
72612;BME280;60655;52.182;4.474;2022-12-13T03:19:58;101324.69;;;-0.55;84.44
72612;BME280;60655;52.182;4.474;2022-12-13T03:21:59;101327.59;;;-0.58;84.31
72612;BME280;60655;52.182;4.474;2022-12-13T03:24:05;101322.19;;;-0.57;85.72
72612;BME280;60655;52.182;4.474;2022-12-13T03:26:09;101329.38;;;-0.49;85.05
72612;BME280;60655;52.182;4.474;2022-12-13T03:28:11;101325.38;;;-0.63;84.62
72612;BME280;60655;52.182;4.474;2022-12-13T03:30:12;101329.06;;;-0.56;85.07
72612;BME280;60655;52.182;4.474;2022-12-13T03:32:13;101322.19;;;-0.57;85.30
72612;BME280;60655;52.182;4.474;2022-12-13T03:34:14;101324.50;;;-0.73;84.99
72612;BME280;60655;52.182;4.474;2022-12-13T03:36:16;101330.97;;;-0.68;83.69
72612;BME280;60655;52.182;4.474;2022-12-13T03:38:18;101332.06;;;-0.70;84.46
72612;BME280;60655;52.182;4.474;2022-12-13T03:40:20;101333.78;;;-0.80;84.53
72612;BME280;60655;52.182;4.474;2022-12-13T03:42:21;101320.09;;;-0.73;85.60
72612;BME280;60655;52.182;4.474;2022-12-13T03:44:22;101320.78;;;-0.71;85.61
72612;BME280;60655;52.182;4.474;2022-12-13T03:46:23;101308.38;;;-0.88;85.62
72612;BME280;60655;52.182;4.474;2022-12-13T03:48:24;101319.28;;;-0.73;84.50
72612;BME280;60655;52.182;4.474;2022-12-13T03:50:25;101314.00;;;-0.83;84.51
72612;BME280;60655;52.182;4.474;2022-12-13T03:52:26;101319.00;;;-0.70;85.04
72612;BME280;60655;52.182;4.474;2022-12-13T03:54:27;101316.19;;;-0.88;85.04
72612;BME280;60655;52.182;4.474;2022-12-13T03:56:28;101317.50;;;-0.73;85.41
72612;BME280;60655;52.182;4.474;2022-12-13T03:58:29;101317.09;;;-0.68;84.88
72612;BME280;60655;52.182;4.474;2022-12-13T04:00:31;101320.16;;;-0.63;85.73
72612;BME280;60655;52.182;4.474;2022-12-13T04:02:31;101323.00;;;-0.66;85.50
72612;BME280;60655;52.182;4.474;2022-12-13T04:04:32;101315.63;;;-0.61;85.27
72612;BME280;60655;52.182;4.474;2022-12-13T04:06:33;101320.03;;;-0.61;84.88
72612;BME280;60655;52.182;4.474;2022-12-13T04:08:35;101316.53;;;-0.72;84.87
72612;BME280;60655;52.182;4.474;2022-12-13T04:10:36;101316.22;;;-0.78;85.26
72612;BME280;60655;52.182;4.474;2022-12-13T04:12:37;101319.84;;;-0.70;84.66
72612;BME280;60655;52.182;4.474;2022-12-13T04:14:56;101321.75;;;-0.72;85.50
72612;BME280;60655;52.182;4.474;2022-12-13T04:16:57;101312.63;;;-0.87;84.60
72612;BME280;60655;52.182;4.474;2022-12-13T04:18:58;101305.19;;;-0.91;83.97
72612;BME280;60655;52.182;4.474;2022-12-13T04:20:59;101311.94;;;-0.89;85.14
72612;BME280;60655;52.182;4.474;2022-12-13T04:23:00;101313.59;;;-0.88;85.47
72612;BME280;60655;52.182;4.474;2022-12-13T04:25:02;101317.28;;;-0.90;85.09
72612;BME280;60655;52.182;4.474;2022-12-13T04:27:03;101311.81;;;-0.87;85.68
72612;BME280;60655;52.182;4.474;2022-12-13T04:29:04;101311.63;;;-0.95;85.25
72612;BME280;60655;52.182;4.474;2022-12-13T04:31:05;101313.22;;;-1.04;85.39
72612;BME280;60655;52.182;4.474;2022-12-13T04:33:06;101312.97;;;-1.01;85.73
72612;BME280;60655;52.182;4.474;2022-12-13T04:35:07;101309.72;;;-0.93;85.73
72612;BME280;60655;52.182;4.474;2022-12-13T04:37:08;101304.13;;;-0.89;86.06
72612;BME280;60655;52.182;4.474;2022-12-13T04:39:09;101307.84;;;-0.82;85.76
72612;BME280;60655;52.182;4.474;2022-12-13T04:41:16;101311.41;;;-0.83;84.68
72612;BME280;60655;52.182;4.474;2022-12-13T04:43:17;101305.22;;;-0.82;84.51
72612;BME280;60655;52.182;4.474;2022-12-13T04:45:19;101313.31;;;-0.85;85.05
72612;BME280;60655;52.182;4.474;2022-12-13T04:47:20;101311.66;;;-0.86;85.04
72612;BME280;60655;52.182;4.474;2022-12-13T04:49:21;101314.69;;;-0.90;84.82
72612;BME280;60655;52.182;4.474;2022-12-13T04:51:22;101316.53;;;-1.02;85.05
72612;BME280;60655;52.182;4.474;2022-12-13T04:53:23;101306.97;;;-0.92;84.52
72612;BME280;60655;52.182;4.474;2022-12-13T04:55:24;101309.03;;;-0.95;85.10
72612;BME280;60655;52.182;4.474;2022-12-13T04:57:25;101311.25;;;-0.91;85.12
72612;BME280;60655;52.182;4.474;2022-12-13T04:59:26;101307.81;;;-0.91;85.71
72612;BME280;60655;52.182;4.474;2022-12-13T05:01:27;101308.19;;;-0.96;85.33
72612;BME280;60655;52.182;4.474;2022-12-13T05:03:28;101305.34;;;-0.83;84.94
72612;BME280;60655;52.182;4.474;2022-12-13T05:05:29;101296.28;;;-0.89;85.62
72612;BME280;60655;52.182;4.474;2022-12-13T05:07:30;101294.09;;;-0.84;85.33
72612;BME280;60655;52.182;4.474;2022-12-13T05:09:31;101296.09;;;-0.97;84.49
72612;BME280;60655;52.182;4.474;2022-12-13T05:11:32;101302.72;;;-0.93;85.11
72612;BME280;60655;52.182;4.474;2022-12-13T05:13:33;101300.41;;;-0.86;84.59
72612;BME280;60655;52.182;4.474;2022-12-13T05:15:35;101298.78;;;-0.87;84.54
72612;BME280;60655;52.182;4.474;2022-12-13T05:17:36;101297.06;;;-0.98;84.63
72612;BME280;60655;52.182;4.474;2022-12-13T05:19:37;101297.63;;;-0.94;86.11
72612;BME280;60655;52.182;4.474;2022-12-13T05:21:38;101296.81;;;-0.95;84.85
72612;BME280;60655;52.182;4.474;2022-12-13T05:23:39;101295.53;;;-1.00;84.85
72612;BME280;60655;52.182;4.474;2022-12-13T05:25:40;101301.00;;;-1.04;84.40
72612;BME280;60655;52.182;4.474;2022-12-13T05:27:41;101292.41;;;-0.94;85.33
72612;BME280;60655;52.182;4.474;2022-12-13T05:29:42;101293.63;;;-0.98;84.71
72612;BME280;60655;52.182;4.474;2022-12-13T05:31:43;101299.63;;;-1.08;84.24
72612;BME280;60655;52.182;4.474;2022-12-13T05:33:44;101306.03;;;-1.12;84.79
72612;BME280;60655;52.182;4.474;2022-12-13T05:35:45;101298.34;;;-1.13;84.78
72612;BME280;60655;52.182;4.474;2022-12-13T05:37:46;101299.22;;;-1.03;84.29
72612;BME280;60655;52.182;4.474;2022-12-13T05:39:47;101303.03;;;-1.07;84.17
72612;BME280;60655;52.182;4.474;2022-12-13T05:41:48;101300.13;;;-1.14;84.27
72612;BME280;60655;52.182;4.474;2022-12-13T05:43:50;101299.75;;;-1.09;85.33
72612;BME280;60655;52.182;4.474;2022-12-13T05:45:51;101302.47;;;-1.11;85.57
72612;BME280;60655;52.182;4.474;2022-12-13T05:47:52;101292.44;;;-1.15;85.34
72612;BME280;60655;52.182;4.474;2022-12-13T05:49:53;101291.75;;;-1.17;85.19
72612;BME280;60655;52.182;4.474;2022-12-13T05:51:54;101288.75;;;-1.13;85.33
72612;BME280;60655;52.182;4.474;2022-12-13T05:53:55;101288.69;;;-1.02;85.30
72612;BME280;60655;52.182;4.474;2022-12-13T05:56:00;101280.41;;;-1.07;85.39
72612;BME280;60655;52.182;4.474;2022-12-13T05:58:01;101281.56;;;-0.99;85.08
72612;BME280;60655;52.182;4.474;2022-12-13T06:00:04;101283.84;;;-1.06;85.02
72612;BME280;60655;52.182;4.474;2022-12-13T06:02:06;101287.84;;;-1.02;85.71
72612;BME280;60655;52.182;4.474;2022-12-13T06:04:07;101286.91;;;-1.01;85.64
72612;BME280;60655;52.182;4.474;2022-12-13T06:06:10;101289.56;;;-0.91;85.86
72612;BME280;60655;52.182;4.474;2022-12-13T06:08:11;101275.69;;;-0.92;85.44
72612;BME280;60655;52.182;4.474;2022-12-13T06:10:12;101279.53;;;-0.86;86.08
72612;BME280;60655;52.182;4.474;2022-12-13T06:12:12;101281.63;;;-0.80;85.82
72612;BME280;60655;52.182;4.474;2022-12-13T06:14:15;101273.34;;;-0.85;85.25
72612;BME280;60655;52.182;4.474;2022-12-13T06:16:16;101271.31;;;-0.82;86.01
72612;BME280;60655;52.182;4.474;2022-12-13T06:18:17;101268.31;;;-0.87;85.28
72612;BME280;60655;52.182;4.474;2022-12-13T06:20:18;101264.06;;;-0.78;85.65
72612;BME280;60655;52.182;4.474;2022-12-13T06:22:19;101279.44;;;-0.75;86.06
72612;BME280;60655;52.182;4.474;2022-12-13T06:24:21;101276.53;;;-0.82;85.36
72612;BME280;60655;52.182;4.474;2022-12-13T06:26:24;101273.94;;;-0.82;84.86
72612;BME280;60655;52.182;4.474;2022-12-13T06:28:25;101274.16;;;-0.94;84.56
72612;BME280;60655;52.182;4.474;2022-12-13T06:30:26;101273.59;;;-0.98;85.04
72612;BME280;60655;52.182;4.474;2022-12-13T06:32:27;101280.78;;;-0.90;84.97
72612;BME280;60655;52.182;4.474;2022-12-13T06:34:31;101277.34;;;-0.91;84.90
72612;BME280;60655;52.182;4.474;2022-12-13T06:36:32;101276.22;;;-0.98;84.83
72612;BME280;60655;52.182;4.474;2022-12-13T06:38:33;101275.75;;;-1.03;84.96
72612;BME280;60655;52.182;4.474;2022-12-13T06:40:34;101278.13;;;-1.00;84.78
72612;BME280;60655;52.182;4.474;2022-12-13T06:42:35;101279.69;;;-1.18;84.66
72612;BME280;60655;52.182;4.474;2022-12-13T06:44:36;101282.41;;;-1.20;86.32
72612;BME280;60655;52.182;4.474;2022-12-13T06:46:37;101278.19;;;-1.11;86.04
72612;BME280;60655;52.182;4.474;2022-12-13T06:48:38;101281.09;;;-1.05;85.73
72612;BME280;60655;52.182;4.474;2022-12-13T06:50:42;101284.97;;;-0.99;85.55
72612;BME280;60655;52.182;4.474;2022-12-13T06:52:45;101288.88;;;-1.14;85.67
72612;BME280;60655;52.182;4.474;2022-12-13T06:54:46;101287.91;;;-1.13;85.65
72612;BME280;60655;52.182;4.474;2022-12-13T06:56:47;101295.34;;;-1.09;85.25
72612;BME280;60655;52.182;4.474;2022-12-13T06:58:48;101295.31;;;-1.18;84.89
72612;BME280;60655;52.182;4.474;2022-12-13T07:00:49;101281.97;;;-1.25;84.72
72612;BME280;60655;52.182;4.474;2022-12-13T07:02:53;101293.72;;;-1.30;84.31
72612;BME280;60655;52.182;4.474;2022-12-13T07:04:55;101282.78;;;-1.24;84.83
72612;BME280;60655;52.182;4.474;2022-12-13T07:06:56;101284.63;;;-1.36;84.15
72612;BME280;60655;52.182;4.474;2022-12-13T07:08:57;101289.72;;;-1.34;84.30
72612;BME280;60655;52.182;4.474;2022-12-13T07:10:58;101288.56;;;-1.42;83.77
72612;BME280;60655;52.182;4.474;2022-12-13T07:12:59;101288.06;;;-1.36;84.30
72612;BME280;60655;52.182;4.474;2022-12-13T07:15:00;101294.09;;;-1.35;84.27
72612;BME280;60655;52.182;4.474;2022-12-13T07:17:01;101294.31;;;-1.48;83.75
72612;BME280;60655;52.182;4.474;2022-12-13T07:19:02;101289.09;;;-1.48;84.40
72612;BME280;60655;52.182;4.474;2022-12-13T07:21:05;101298.63;;;-1.37;85.80
72612;BME280;60655;52.182;4.474;2022-12-13T07:23:06;101295.19;;;-1.38;84.69
72612;BME280;60655;52.182;4.474;2022-12-13T07:25:07;101290.16;;;-1.29;83.98
72612;BME280;60655;52.182;4.474;2022-12-13T07:27:08;101295.97;;;-1.47;84.00
72612;BME280;60655;52.182;4.474;2022-12-13T07:29:09;101309.38;;;-1.30;84.56
72612;BME280;60655;52.182;4.474;2022-12-13T07:31:11;101309.63;;;-1.33;84.02
72612;BME280;60655;52.182;4.474;2022-12-13T07:33:13;101311.47;;;-1.24;83.72
72612;BME280;60655;52.182;4.474;2022-12-13T07:35:14;101310.31;;;-1.31;82.36
72612;BME280;60655;52.182;4.474;2022-12-13T07:37:15;101311.00;;;-1.29;84.27
72612;BME280;60655;52.182;4.474;2022-12-13T07:39:16;101313.88;;;-1.32;84.51
72612;BME280;60655;52.182;4.474;2022-12-13T07:41:17;101306.09;;;-1.44;83.96
72612;BME280;60655;52.182;4.474;2022-12-13T07:43:18;101311.31;;;-1.44;83.99
72612;BME280;60655;52.182;4.474;2022-12-13T07:45:20;101315.28;;;-1.28;84.63
72612;BME280;60655;52.182;4.474;2022-12-13T07:47:21;101320.94;;;-1.23;84.74
72612;BME280;60655;52.182;4.474;2022-12-13T07:49:23;101312.16;;;-1.22;83.51
72612;BME280;60655;52.182;4.474;2022-12-13T07:51:23;101308.41;;;-1.29;83.89
72612;BME280;60655;52.182;4.474;2022-12-13T07:53:24;101317.06;;;-1.29;83.53
72612;BME280;60655;52.182;4.474;2022-12-13T07:55:26;101307.97;;;-1.34;84.17
72612;BME280;60655;52.182;4.474;2022-12-13T07:57:27;101310.00;;;-1.38;84.87
72612;BME280;60655;52.182;4.474;2022-12-13T07:59:28;101313.75;;;-1.31;84.97
72612;BME280;60655;52.182;4.474;2022-12-13T08:01:32;101298.69;;;-1.27;84.59
72612;BME280;60655;52.182;4.474;2022-12-13T08:03:35;101312.88;;;-1.20;84.58
72612;BME280;60655;52.182;4.474;2022-12-13T08:05:37;101307.66;;;-1.20;83.31
72612;BME280;60655;52.182;4.474;2022-12-13T08:07:39;101306.50;;;-1.27;84.45
72612;BME280;60655;52.182;4.474;2022-12-13T08:09:40;101307.41;;;-1.17;83.97
72612;BME280;60655;52.182;4.474;2022-12-13T08:11:41;101306.72;;;-1.10;84.08
72612;BME280;60655;52.182;4.474;2022-12-13T08:13:42;101312.41;;;-1.25;83.98
72612;BME280;60655;52.182;4.474;2022-12-13T08:15:43;101308.47;;;-1.41;84.61
72612;BME280;60655;52.182;4.474;2022-12-13T08:17:44;101315.72;;;-1.44;83.70
72612;BME280;60655;52.182;4.474;2022-12-13T08:19:45;101309.13;;;-1.48;84.72
72612;BME280;60655;52.182;4.474;2022-12-13T08:21:46;101311.16;;;-1.31;85.02
72612;BME280;60655;52.182;4.474;2022-12-13T08:23:47;101324.69;;;-1.37;84.37
72612;BME280;60655;52.182;4.474;2022-12-13T08:25:52;101320.41;;;-1.38;84.54
72612;BME280;60655;52.182;4.474;2022-12-13T08:27:54;101325.56;;;-1.27;85.14
72612;BME280;60655;52.182;4.474;2022-12-13T08:29:55;101336.56;;;-1.23;84.74
72612;BME280;60655;52.182;4.474;2022-12-13T08:31:56;101330.03;;;-1.18;84.64
72612;BME280;60655;52.182;4.474;2022-12-13T08:33:57;101334.22;;;-1.26;84.42
72612;BME280;60655;52.182;4.474;2022-12-13T08:36:09;101330.09;;;-1.29;84.55
72612;BME280;60655;52.182;4.474;2022-12-13T08:38:11;101332.56;;;-1.27;84.44
72612;BME280;60655;52.182;4.474;2022-12-13T08:40:12;101331.53;;;-1.15;84.38
72612;BME280;60655;52.182;4.474;2022-12-13T08:42:15;101333.34;;;-1.16;83.94
72612;BME280;60655;52.182;4.474;2022-12-13T08:44:17;101333.75;;;-1.11;82.88
72612;BME280;60655;52.182;4.474;2022-12-13T08:46:18;101320.25;;;-1.25;82.68
72612;BME280;60655;52.182;4.474;2022-12-13T08:48:19;101337.03;;;-1.18;83.06
72612;BME280;60655;52.182;4.474;2022-12-13T08:50:20;101333.47;;;-1.17;83.87
72612;BME280;60655;52.182;4.474;2022-12-13T08:52:21;101332.63;;;-1.18;83.59
72612;BME280;60655;52.182;4.474;2022-12-13T08:54:23;101326.25;;;-1.04;84.33
72612;BME280;60655;52.182;4.474;2022-12-13T08:56:24;101326.25;;;-1.04;83.50
72612;BME280;60655;52.182;4.474;2022-12-13T08:58:25;101327.31;;;-1.16;83.34
72612;BME280;60655;52.182;4.474;2022-12-13T09:00:26;101327.72;;;-1.11;84.16
72612;BME280;60655;52.182;4.474;2022-12-13T09:02:27;101326.47;;;-1.17;83.65
72612;BME280;60655;52.182;4.474;2022-12-13T09:04:28;101321.81;;;-1.13;84.87
72612;BME280;60655;52.182;4.474;2022-12-13T09:06:29;101326.88;;;-0.91;85.01
72612;BME280;60655;52.182;4.474;2022-12-13T09:08:30;101324.19;;;-0.80;85.09
72612;BME280;60655;52.182;4.474;2022-12-13T09:10:31;101329.56;;;-0.72;84.62
72612;BME280;60655;52.182;4.474;2022-12-13T09:12:32;101335.94;;;-0.64;84.54
72612;BME280;60655;52.182;4.474;2022-12-13T09:14:33;101336.38;;;-0.80;83.13
72612;BME280;60655;52.182;4.474;2022-12-13T09:16:34;101329.38;;;-0.89;84.21
72612;BME280;60655;52.182;4.474;2022-12-13T09:18:38;101340.41;;;-0.76;84.50
72612;BME280;60655;52.182;4.474;2022-12-13T09:20:38;101336.97;;;-0.77;84.37
72612;BME280;60655;52.182;4.474;2022-12-13T09:22:42;101333.34;;;-0.85;84.75
72612;BME280;60655;52.182;4.474;2022-12-13T09:24:43;101329.75;;;-0.63;84.74
72612;BME280;60655;52.182;4.474;2022-12-13T09:26:44;101342.25;;;-0.57;84.02
72612;BME280;60655;52.182;4.474;2022-12-13T09:28:45;101339.56;;;-0.46;84.14
72612;BME280;60655;52.182;4.474;2022-12-13T09:30:46;101328.84;;;-0.43;84.17
72612;BME280;60655;52.182;4.474;2022-12-13T09:32:47;101331.63;;;-0.35;84.17
72612;BME280;60655;52.182;4.474;2022-12-13T09:34:50;101337.78;;;-0.46;83.61
72612;BME280;60655;52.182;4.474;2022-12-13T09:36:51;101317.69;;;-0.55;83.04
72612;BME280;60655;52.182;4.474;2022-12-13T09:38:52;101328.28;;;-0.47;83.19
72612;BME280;60655;52.182;4.474;2022-12-13T09:40:53;101335.28;;;-0.47;84.20
72612;BME280;60655;52.182;4.474;2022-12-13T09:42:56;101327.41;;;-0.57;84.07
72612;BME280;60655;52.182;4.474;2022-12-13T09:45:00;101322.00;;;-0.44;84.49
72612;BME280;60655;52.182;4.474;2022-12-13T09:47:04;101313.47;;;-0.46;84.21
72612;BME280;60655;52.182;4.474;2022-12-13T09:49:20;101321.19;;;-0.35;84.31
72612;BME280;60655;52.182;4.474;2022-12-13T09:51:25;101321.34;;;-0.27;84.10
72612;BME280;60655;52.182;4.474;2022-12-13T09:53:26;101317.91;;;-0.27;83.58
72612;BME280;60655;52.182;4.474;2022-12-13T09:55:36;101320.09;;;-0.23;84.18
72612;BME280;60655;52.182;4.474;2022-12-13T09:57:38;101328.34;;;-0.27;84.29
72612;BME280;60655;52.182;4.474;2022-12-13T09:59:40;101323.69;;;-0.24;84.30
72612;BME280;60655;52.182;4.474;2022-12-13T10:01:41;101315.22;;;-0.07;84.48
72612;BME280;60655;52.182;4.474;2022-12-13T10:03:46;101315.47;;;-0.10;83.87
72612;BME280;60655;52.182;4.474;2022-12-13T10:06:18;101321.13;;;0.05;83.72
72612;BME280;60655;52.182;4.474;2022-12-13T10:08:22;101313.03;;;-0.02;83.84
72612;BME280;60655;52.182;4.474;2022-12-13T10:10:25;101306.13;;;0.07;83.41
72612;BME280;60655;52.182;4.474;2022-12-13T10:12:27;101307.22;;;0.05;83.79
72612;BME280;60655;52.182;4.474;2022-12-13T10:14:33;101311.06;;;0.00;83.23
72612;BME280;60655;52.182;4.474;2022-12-13T10:18:40;101306.69;;;0.11;83.45
72612;BME280;60655;52.182;4.474;2022-12-13T10:20:41;101302.31;;;0.21;83.51
72612;BME280;60655;52.182;4.474;2022-12-13T10:22:42;101297.34;;;0.18;83.19
72612;BME280;60655;52.182;4.474;2022-12-13T10:26:50;101286.78;;;0.19;83.23
72612;BME280;60655;52.182;4.474;2022-12-13T10:29:01;101284.53;;;0.34;83.65
72612;BME280;60655;52.182;4.474;2022-12-13T10:31:03;101286.88;;;0.37;83.45
72612;BME280;60655;52.182;4.474;2022-12-13T10:33:04;101277.81;;;0.51;83.41
72612;BME280;60655;52.182;4.474;2022-12-13T10:39:41;101271.72;;;0.70;82.56
72612;BME280;60655;52.182;4.474;2022-12-13T10:41:43;101274.88;;;0.73;83.10
72612;BME280;60655;52.182;4.474;2022-12-13T10:44:06;101274.31;;;0.79;82.43
72612;BME280;60655;52.182;4.474;2022-12-13T10:46:16;101270.31;;;0.75;82.44
72612;BME280;60655;52.182;4.474;2022-12-13T10:48:21;101271.16;;;0.76;82.33
72612;BME280;60655;52.182;4.474;2022-12-13T10:50:27;101272.53;;;0.80;82.85
72612;BME280;60655;52.182;4.474;2022-12-13T10:52:29;101272.38;;;0.81;82.59
72612;BME280;60655;52.182;4.474;2022-12-13T10:54:33;101265.84;;;0.95;82.16
72612;BME280;60655;52.182;4.474;2022-12-13T10:56:44;101261.97;;;0.99;81.90
72612;BME280;60655;52.182;4.474;2022-12-13T10:58:47;101263.22;;;0.95;81.77
72612;BME280;60655;52.182;4.474;2022-12-13T11:00:49;101254.03;;;0.91;82.54
72612;BME280;60655;52.182;4.474;2022-12-13T11:02:53;101252.66;;;0.87;82.24
72612;BME280;60655;52.182;4.474;2022-12-13T11:04:57;101259.22;;;1.00;82.31
72612;BME280;60655;52.182;4.474;2022-12-13T11:09:34;101258.59;;;1.16;82.32
72612;BME280;60655;52.182;4.474;2022-12-13T11:11:35;101262.56;;;1.20;81.62
72612;BME280;60655;52.182;4.474;2022-12-13T11:14:19;101270.13;;;1.23;81.89
72612;BME280;60655;52.182;4.474;2022-12-13T11:16:02;101257.41;;;1.11;81.67
72612;BME280;60655;52.182;4.474;2022-12-13T11:18:07;101252.72;;;1.14;81.44
72612;BME280;60655;52.182;4.474;2022-12-13T11:20:30;101237.31;;;1.11;82.08